Terminal Aerodrome Forecast
Issued by NWS

Home | Current Version | Previous Version | Text Only | Print | Product List | Glossary On
Versions: 1 2 3 4 5 6 7 8 9 10 11 12 13
369
FTUS46 KLOX 221720
TAFPRB
TAF
KPRB 221720Z 2218/2318 00000KT P6SM SKC
     FM222200 22012KT P6SM SKC
     FM230500 29006KT P6SM SKC=

USA.gov is the U.S. government's official web portal to all federal, state and local government web resources and services.